sensor_id;sensor_type;location;lat;lon;timestamp;pressure;altitude;pressure_sealevel;temperature;humidity
71857;BME280;63344;46.980;28.882;2023-06-19T00:01:34;100413.31;;;19.89;81.50
71857;BME280;63344;46.980;28.882;2023-06-19T00:04:02;100430.44;;;19.88;81.44
71857;BME280;63344;46.980;28.882;2023-06-19T00:06:29;100430.44;;;19.88;81.58
71857;BME280;63344;46.980;28.882;2023-06-19T00:08:59;100435.00;;;19.88;81.34
71857;BME280;63344;46.980;28.882;2023-06-19T00:11:26;100434.38;;;19.84;81.67
71857;BME280;63344;46.980;28.882;2023-06-19T00:13:55;100438.31;;;19.80;81.69
71857;BME280;63344;46.980;28.882;2023-06-19T00:16:25;100435.59;;;19.80;nan
71857;BME280;63344;46.980;28.882;2023-06-19T00:18:53;100430.34;;;19.79;81.86
71857;BME280;63344;46.980;28.882;2023-06-19T00:21:25;100436.84;;;19.76;82.19
71857;BME280;63344;46.980;28.882;2023-06-19T00:23:53;100435.13;;;19.75;81.94
71857;BME280;63344;46.980;28.882;2023-06-19T00:26:20;100425.31;;;19.74;81.73
71857;BME280;63344;46.980;28.882;2023-06-19T00:28:52;100432.56;;;19.74;81.86
71857;BME280;63344;46.980;28.882;2023-06-19T00:31:19;100430.97;;;19.71;81.58
71857;BME280;63344;46.980;28.882;2023-06-19T00:33:47;100428.38;;;19.69;81.42
71857;BME280;63344;46.980;28.882;2023-06-19T00:36:16;100433.03;;;19.67;81.29
71857;BME280;63344;46.980;28.882;2023-06-19T00:38:49;100429.44;;;19.67;81.34
71857;BME280;63344;46.980;28.882;2023-06-19T00:41:17;100424.31;;;19.64;81.24
71857;BME280;63344;46.980;28.882;2023-06-19T00:43:45;100433.50;;;19.61;81.23
71857;BME280;63344;46.980;28.882;2023-06-19T00:46:16;100426.41;;;19.60;81.32
71857;BME280;63344;46.980;28.882;2023-06-19T00:48:43;100428.34;;;19.58;81.38
71857;BME280;63344;46.980;28.882;2023-06-19T00:51:11;100442.81;;;19.57;81.50
71857;BME280;63344;46.980;28.882;2023-06-19T00:53:40;100434.84;;;19.56;81.33
71857;BME280;63344;46.980;28.882;2023-06-19T00:56:07;100437.56;;;19.56;80.92
71857;BME280;63344;46.980;28.882;2023-06-19T00:58:36;100437.66;;;19.54;81.08
71857;BME280;63344;46.980;28.882;2023-06-19T01:01:03;100442.22;;;19.54;80.97
71857;BME280;63344;46.980;28.882;2023-06-19T01:03:37;100441.47;;;19.52;80.93
71857;BME280;63344;46.980;28.882;2023-06-19T01:06:13;100440.63;;;19.51;80.77
71857;BME280;63344;46.980;28.882;2023-06-19T01:09:00;100446.97;;;19.50;80.78
71857;BME280;63344;46.980;28.882;2023-06-19T01:11:41;100440.72;;;19.49;80.82
71857;BME280;63344;46.980;28.882;2023-06-19T01:14:14;100447.94;;;19.49;80.68
71857;BME280;63344;46.980;28.882;2023-06-19T01:16:43;100449.78;;;19.48;80.58
71857;BME280;63344;46.980;28.882;2023-06-19T01:19:17;100448.09;;;19.47;80.76
71857;BME280;63344;46.980;28.882;2023-06-19T01:21:47;100453.59;;;19.46;80.39
71857;BME280;63344;46.980;28.882;2023-06-19T01:24:15;100462.50;;;19.46;80.50
71857;BME280;63344;46.980;28.882;2023-06-19T01:26:43;100453.69;;;19.44;80.17
71857;BME280;63344;46.980;28.882;2023-06-19T01:29:15;100459.94;;;19.45;80.55
71857;BME280;63344;46.980;28.882;2023-06-19T01:32:07;100460.66;;;19.47;80.34
71857;BME280;63344;46.980;28.882;2023-06-19T01:34:38;100470.47;;;19.48;80.37
71857;BME280;63344;46.980;28.882;2023-06-19T01:37:08;100475.03;;;19.47;79.98
71857;BME280;63344;46.980;28.882;2023-06-19T01:39:37;100472.44;;;19.46;80.20
71857;BME280;63344;46.980;28.882;2023-06-19T01:42:07;100477.81;;;19.46;80.22
71857;BME280;63344;46.980;28.882;2023-06-19T01:44:37;100480.63;;;19.44;80.13
71857;BME280;63344;46.980;28.882;2023-06-19T01:47:09;100470.97;;;19.42;80.11
71857;BME280;63344;46.980;28.882;2023-06-19T01:49:38;100471.06;;;19.40;80.45
71857;BME280;63344;46.980;28.882;2023-06-19T01:52:06;100486.50;;;19.38;80.56
71857;BME280;63344;46.980;28.882;2023-06-19T01:54:37;100491.16;;;19.36;80.84
71857;BME280;63344;46.980;28.882;2023-06-19T01:57:05;100492.38;;;19.32;80.80
71857;BME280;63344;46.980;28.882;2023-06-19T01:59:33;100495.19;;;19.30;80.74
71857;BME280;63344;46.980;28.882;2023-06-19T02:02:00;100493.59;;;19.28;80.65
71857;BME280;63344;46.980;28.882;2023-06-19T02:04:28;100500.94;;;19.26;81.05
71857;BME280;63344;46.980;28.882;2023-06-19T02:06:56;100503.84;;;19.23;81.13
71857;BME280;63344;46.980;28.882;2023-06-19T02:09:23;100509.22;;;19.23;81.30
71857;BME280;63344;46.980;28.882;2023-06-19T02:11:53;100513.66;;;19.24;81.01
71857;BME280;63344;46.980;28.882;2023-06-19T02:14:22;100505.69;;;19.22;81.10
71857;BME280;63344;46.980;28.882;2023-06-19T02:17:02;100498.47;;;19.23;81.08
71857;BME280;63344;46.980;28.882;2023-06-19T02:19:29;100502.13;;;19.22;81.41
71857;BME280;63344;46.980;28.882;2023-06-19T02:21:57;100503.25;;;19.19;81.12
71857;BME280;63344;46.980;28.882;2023-06-19T02:24:26;100512.19;;;19.20;81.59
71857;BME280;63344;46.980;28.882;2023-06-19T02:26:53;100510.34;;;19.20;81.51
71857;BME280;63344;46.980;28.882;2023-06-19T02:29:23;100509.47;;;19.20;81.14
71857;BME280;63344;46.980;28.882;2023-06-19T02:31:50;100513.13;;;19.19;81.67
71857;BME280;63344;46.980;28.882;2023-06-19T02:34:18;100509.69;;;19.17;81.48
71857;BME280;63344;46.980;28.882;2023-06-19T02:36:47;100503.47;;;19.16;81.68
71857;BME280;63344;46.980;28.882;2023-06-19T02:39:16;100508.97;;;19.15;81.96
71857;BME280;63344;46.980;28.882;2023-06-19T02:42:06;100516.06;;;19.16;81.66
71857;BME280;63344;46.980;28.882;2023-06-19T02:45:09;100505.63;;;19.11;81.90
71857;BME280;63344;46.980;28.882;2023-06-19T02:47:41;100508.47;;;19.09;82.00
71857;BME280;63344;46.980;28.882;2023-06-19T02:50:09;100524.84;;;19.06;82.12
71857;BME280;63344;46.980;28.882;2023-06-19T02:52:41;100519.47;;;19.06;82.43
71857;BME280;63344;46.980;28.882;2023-06-19T02:55:18;100510.66;;;19.04;82.25
71857;BME280;63344;46.980;28.882;2023-06-19T02:57:50;100509.91;;;19.02;82.60
71857;BME280;63344;46.980;28.882;2023-06-19T03:00:19;100512.22;;;19.07;82.52
71857;BME280;63344;46.980;28.882;2023-06-19T03:02:51;100508.69;;;19.06;82.59
71857;BME280;63344;46.980;28.882;2023-06-19T03:05:20;100517.50;;;19.08;82.36
71857;BME280;63344;46.980;28.882;2023-06-19T03:07:50;100512.88;;;19.10;82.54
71857;BME280;63344;46.980;28.882;2023-06-19T03:10:20;100511.91;;;19.12;82.39
71857;BME280;63344;46.980;28.882;2023-06-19T03:12:53;100506.28;;;19.15;82.37
71857;BME280;63344;46.980;28.882;2023-06-19T03:15:24;100515.81;;;19.19;82.18
71857;BME280;63344;46.980;28.882;2023-06-19T03:18:01;100515.72;;;19.20;81.74
71857;BME280;63344;46.980;28.882;2023-06-19T03:20:37;100511.19;;;19.21;81.63
71857;BME280;63344;46.980;28.882;2023-06-19T03:23:07;100502.13;;;19.22;81.55
71857;BME280;63344;46.980;28.882;2023-06-19T03:25:35;100510.97;;;19.24;81.69
71857;BME280;63344;46.980;28.882;2023-06-19T03:28:14;100514.50;;;19.24;81.67
71857;BME280;63344;46.980;28.882;2023-06-19T03:30:44;100506.19;;;19.27;81.36
71857;BME280;63344;46.980;28.882;2023-06-19T03:33:13;100511.59;;;19.27;81.28
71857;BME280;63344;46.980;28.882;2023-06-19T03:35:40;100510.84;;;19.25;80.93
71857;BME280;63344;46.980;28.882;2023-06-19T03:38:09;100511.69;;;19.26;80.83
71857;BME280;63344;46.980;28.882;2023-06-19T03:40:37;100504.47;;;19.26;80.60
71857;BME280;63344;46.980;28.882;2023-06-19T03:43:05;100505.31;;;19.27;80.84
71857;BME280;63344;46.980;28.882;2023-06-19T03:45:32;100490.28;;;19.24;81.01
71857;BME280;63344;46.980;28.882;2023-06-19T03:48:06;100497.25;;;19.27;81.12
71857;BME280;63344;46.980;28.882;2023-06-19T03:50:35;100502.88;;;19.24;80.62
71857;BME280;63344;46.980;28.882;2023-06-19T03:53:04;100508.91;;;19.27;81.04
71857;BME280;63344;46.980;28.882;2023-06-19T03:55:31;100512.56;;;19.26;81.29
71857;BME280;63344;46.980;28.882;2023-06-19T03:58:05;100514.03;;;19.30;80.70
71857;BME280;63344;46.980;28.882;2023-06-19T04:00:38;100521.88;;;19.34;81.06
71857;BME280;63344;46.980;28.882;2023-06-19T04:03:28;100513.69;;;19.35;80.88
71857;BME280;63344;46.980;28.882;2023-06-19T04:10:47;100518.44;;;19.32;80.45
71857;BME280;63344;46.980;28.882;2023-06-19T04:13:40;100524.91;;;19.29;80.46
71857;BME280;63344;46.980;28.882;2023-06-19T04:17:00;100521.38;;;19.28;80.09
71857;BME280;63344;46.980;28.882;2023-06-19T04:19:56;100526.75;;;19.28;80.36
71857;BME280;63344;46.980;28.882;2023-06-19T04:22:56;100540.09;;;19.30;80.60
71857;BME280;63344;46.980;28.882;2023-06-19T04:25:44;100549.88;;;19.31;80.64
71857;BME280;63344;46.980;28.882;2023-06-19T04:28:33;100549.66;;;19.34;80.53
71857;BME280;63344;46.980;28.882;2023-06-19T04:32:07;100549.06;;;19.42;80.32
71857;BME280;63344;46.980;28.882;2023-06-19T04:35:22;100545.75;;;19.38;79.96
71857;BME280;63344;46.980;28.882;2023-06-19T04:38:14;100558.53;;;19.47;80.08
71857;BME280;63344;46.980;28.882;2023-06-19T04:40:57;100562.94;;;19.48;80.03
71857;BME280;63344;46.980;28.882;2023-06-19T04:44:07;100566.97;;;19.54;79.49
71857;BME280;63344;46.980;28.882;2023-06-19T04:47:16;100565.41;;;19.63;80.15
71857;BME280;63344;46.980;28.882;2023-06-19T04:49:59;100572.25;;;19.67;79.76
71857;BME280;63344;46.980;28.882;2023-06-19T04:53:01;100572.81;;;19.72;80.27
71857;BME280;63344;46.980;28.882;2023-06-19T04:55:57;100573.06;;;19.80;79.60
71857;BME280;63344;46.980;28.882;2023-06-19T04:58:55;100577.16;;;19.97;79.86
71857;BME280;63344;46.980;28.882;2023-06-19T05:01:45;100572.22;;;20.02;79.62
71857;BME280;63344;46.980;28.882;2023-06-19T05:04:28;100575.44;;;20.07;78.77
71857;BME280;63344;46.980;28.882;2023-06-19T05:07:32;100576.91;;;20.12;79.24
71857;BME280;63344;46.980;28.882;2023-06-19T05:10:16;100575.28;;;20.20;79.18
71857;BME280;63344;46.980;28.882;2023-06-19T05:13:17;100580.09;;;20.28;79.01
71857;BME280;63344;46.980;28.882;2023-06-19T05:16:46;100580.69;;;20.20;78.68
71857;BME280;63344;46.980;28.882;2023-06-19T05:29:14;100593.94;;;20.12;78.59
71857;BME280;63344;46.980;28.882;2023-06-19T05:33:23;100601.78;;;20.04;79.01
71857;BME280;63344;46.980;28.882;2023-06-19T05:36:40;100590.38;;;20.00;79.59
71857;BME280;63344;46.980;28.882;2023-06-19T05:40:09;100595.03;;;20.09;80.13
71857;BME280;63344;46.980;28.882;2023-06-19T05:43:45;100588.78;;;20.32;79.69
71857;BME280;63344;46.980;28.882;2023-06-19T05:47:12;100585.94;;;20.44;79.04
71857;BME280;63344;46.980;28.882;2023-06-19T05:50:50;100583.28;;;20.67;79.08
71857;BME280;63344;46.980;28.882;2023-06-19T05:53:52;100593.41;;;20.86;78.55
71857;BME280;63344;46.980;28.882;2023-06-19T05:57:19;100592.03;;;20.92;77.57
71857;BME280;63344;46.980;28.882;2023-06-19T06:00:20;100596.81;;;20.99;77.11
71857;BME280;63344;46.980;28.882;2023-06-19T06:03:22;100594.41;;;21.17;76.97
71857;BME280;63344;46.980;28.882;2023-06-19T06:06:10;100601.34;;;21.31;77.12
71857;BME280;63344;46.980;28.882;2023-06-19T06:08:54;100595.78;;;21.33;76.50
71857;BME280;63344;46.980;28.882;2023-06-19T06:12:26;100593.97;;;21.33;76.01
71857;BME280;63344;46.980;28.882;2023-06-19T06:15:24;100588.78;;;21.41;76.00
71857;BME280;63344;46.980;28.882;2023-06-19T06:18:32;100600.44;;;21.42;75.90
71857;BME280;63344;46.980;28.882;2023-06-19T06:21:53;100581.75;;;21.50;75.65
71857;BME280;63344;46.980;28.882;2023-06-19T06:25:30;100580.50;;;21.75;75.71
71857;BME280;63344;46.980;28.882;2023-06-19T06:28:30;100585.19;;;21.73;74.38
71857;BME280;63344;46.980;28.882;2023-06-19T06:31:24;100583.47;;;21.72;74.11
71857;BME280;63344;46.980;28.882;2023-06-19T06:34:47;100583.88;;;21.67;73.85
71857;BME280;63344;46.980;28.882;2023-06-19T06:37:46;100575.69;;;21.58;73.72
71857;BME280;63344;46.980;28.882;2023-06-19T06:40:44;100569.97;;;21.51;73.96
71857;BME280;63344;46.980;28.882;2023-06-19T06:43:57;100559.06;;;21.41;73.62
71857;BME280;63344;46.980;28.882;2023-06-19T06:47:08;100557.47;;;21.39;73.80
71857;BME280;63344;46.980;28.882;2023-06-19T06:50:08;100563.00;;;21.37;73.45
71857;BME280;63344;46.980;28.882;2023-06-19T06:53:11;100558.56;;;21.36;73.97
71857;BME280;63344;46.980;28.882;2023-06-19T06:56:21;100554.09;;;21.25;73.88
71857;BME280;63344;46.980;28.882;2023-06-19T06:59:09;100550.19;;;21.18;74.13
71857;BME280;63344;46.980;28.882;2023-06-19T07:02:05;100559.22;;;21.28;74.41
71857;BME280;63344;46.980;28.882;2023-06-19T07:05:08;100560.75;;;21.42;73.46
71857;BME280;63344;46.980;28.882;2023-06-19T07:08:05;100561.31;;;21.57;74.02
71857;BME280;63344;46.980;28.882;2023-06-19T07:11:35;100558.34;;;21.81;73.34
71857;BME280;63344;46.980;28.882;2023-06-19T07:17:49;100554.69;;;21.92;72.14
71857;BME280;63344;46.980;28.882;2023-06-19T07:21:20;100557.03;;;22.06;72.08
71857;BME280;63344;46.980;28.882;2023-06-19T07:24:12;100556.00;;;22.28;71.63
71857;BME280;63344;46.980;28.882;2023-06-19T07:30:28;100555.56;;;22.74;70.59
71857;BME280;63344;46.980;28.882;2023-06-19T07:46:58;100577.00;;;22.46;67.67
71857;BME280;63344;46.980;28.882;2023-06-19T07:50:02;100572.91;;;22.52;67.11
71857;BME280;63344;46.980;28.882;2023-06-19T07:53:47;100580.16;;;22.51;67.24
71857;BME280;63344;46.980;28.882;2023-06-19T07:57:05;100593.41;;;22.54;67.24
71857;BME280;63344;46.980;28.882;2023-06-19T08:04:06;100577.75;;;22.58;67.59
71857;BME280;63344;46.980;28.882;2023-06-19T08:11:08;100579.00;;;22.13;68.56
71857;BME280;63344;46.980;28.882;2023-06-19T08:14:15;100584.78;;;21.99;68.67
71857;BME280;63344;46.980;28.882;2023-06-19T08:17:21;100589.91;;;22.02;68.97
71857;BME280;63344;46.980;28.882;2023-06-19T08:20:26;100592.88;;;21.99;69.79
71857;BME280;63344;46.980;28.882;2023-06-19T08:23:32;100588.31;;;21.99;69.58
71857;BME280;63344;46.980;28.882;2023-06-19T08:27:01;100591.16;;;21.98;70.32
71857;BME280;63344;46.980;28.882;2023-06-19T08:30:22;100599.94;;;21.90;70.39
71857;BME280;63344;46.980;28.882;2023-06-19T08:34:01;100600.09;;;21.67;70.43
71857;BME280;63344;46.980;28.882;2023-06-19T08:37:25;100588.81;;;21.62;71.59
71857;BME280;63344;46.980;28.882;2023-06-19T08:41:17;100593.16;;;21.54;72.36
71857;BME280;63344;46.980;28.882;2023-06-19T08:48:44;100603.66;;;21.36;72.20
71857;BME280;63344;46.980;28.882;2023-06-19T08:52:04;100605.97;;;21.40;72.18
71857;BME280;63344;46.980;28.882;2023-06-19T08:55:44;100603.69;;;21.57;72.49
71857;BME280;63344;46.980;28.882;2023-06-19T08:59:16;100604.72;;;21.77;71.96
71857;BME280;63344;46.980;28.882;2023-06-19T09:02:41;100606.72;;;21.84;71.21
71857;BME280;63344;46.980;28.882;2023-06-19T09:05:54;100613.84;;;22.06;70.60
71857;BME280;63344;46.980;28.882;2023-06-19T09:09:49;100612.78;;;22.19;68.54
71857;BME280;63344;46.980;28.882;2023-06-19T09:12:24;100616.41;;;22.29;68.58
71857;BME280;63344;46.980;28.882;2023-06-19T09:19:50;100602.75;;;22.71;67.42
71857;BME280;63344;46.980;28.882;2023-06-19T09:27:20;100610.31;;;22.77;66.53
71857;BME280;63344;46.980;28.882;2023-06-19T09:30:59;100607.72;;;22.76;66.31
71857;BME280;63344;46.980;28.882;2023-06-19T09:34:23;100596.84;;;22.56;65.71
71857;BME280;63344;46.980;28.882;2023-06-19T09:38:21;100603.06;;;22.37;66.40
71857;BME280;63344;46.980;28.882;2023-06-19T09:42:06;100592.31;;;22.26;66.82
71857;BME280;63344;46.980;28.882;2023-06-19T09:45:06;100583.94;;;22.29;67.10
71857;BME280;63344;46.980;28.882;2023-06-19T09:48:43;100580.88;;;22.22;67.23
71857;BME280;63344;46.980;28.882;2023-06-19T09:51:47;100571.78;;;22.23;67.06
71857;BME280;63344;46.980;28.882;2023-06-19T09:54:57;100577.53;;;22.30;67.72
71857;BME280;63344;46.980;28.882;2023-06-19T09:58:00;100578.69;;;22.37;68.05
71857;BME280;63344;46.980;28.882;2023-06-19T10:00:57;100570.88;;;22.44;67.83
71857;BME280;63344;46.980;28.882;2023-06-19T10:04:41;100569.34;;;22.51;67.57
71857;BME280;63344;46.980;28.882;2023-06-19T10:08:02;100586.16;;;22.64;66.90
71857;BME280;63344;46.980;28.882;2023-06-19T10:11:03;100587.47;;;22.70;66.93
71857;BME280;63344;46.980;28.882;2023-06-19T10:14:29;100592.31;;;22.66;67.00
71857;BME280;63344;46.980;28.882;2023-06-19T10:18:14;100599.44;;;22.67;67.42
71857;BME280;63344;46.980;28.882;2023-06-19T10:21:54;100588.47;;;22.59;67.76
71857;BME280;63344;46.980;28.882;2023-06-19T10:25:02;100595.16;;;22.65;68.09
71857;BME280;63344;46.980;28.882;2023-06-19T10:28:59;100591.00;;;22.51;68.44
71857;BME280;63344;46.980;28.882;2023-06-19T10:31:59;100595.09;;;22.45;68.84
71857;BME280;63344;46.980;28.882;2023-06-19T10:35:13;100601.66;;;22.43;69.12
71857;BME280;63344;46.980;28.882;2023-06-19T10:38:25;100590.25;;;22.39;69.69
71857;BME280;63344;46.980;28.882;2023-06-19T10:41:21;100601.19;;;22.38;69.33
71857;BME280;63344;46.980;28.882;2023-06-19T10:44:17;100594.34;;;22.34;69.95
71857;BME280;63344;46.980;28.882;2023-06-19T10:48:26;100601.78;;;22.20;70.46
71857;BME280;63344;46.980;28.882;2023-06-19T10:52:04;100601.91;;;22.09;70.74
71857;BME280;63344;46.980;28.882;2023-06-19T10:55:28;100609.13;;;22.08;71.26
71857;BME280;63344;46.980;28.882;2023-06-19T10:58:31;100603.47;;;22.12;71.28
71857;BME280;63344;46.980;28.882;2023-06-19T11:02:03;100601.66;;;22.22;71.52
71857;BME280;63344;46.980;28.882;2023-06-19T11:04:59;100603.00;;;22.27;71.51
71857;BME280;63344;46.980;28.882;2023-06-19T11:08:02;100608.19;;;22.40;71.30
71857;BME280;63344;46.980;28.882;2023-06-19T11:11:56;100608.22;;;22.50;71.35
71857;BME280;63344;46.980;28.882;2023-06-19T11:15:40;100606.94;;;22.54;70.72
71857;BME280;63344;46.980;28.882;2023-06-19T11:19:16;100614.94;;;22.56;71.17
71857;BME280;63344;46.980;28.882;2023-06-19T11:22:58;100612.47;;;22.83;71.35
71857;BME280;63344;46.980;28.882;2023-06-19T11:26:26;100613.47;;;22.92;70.12
71857;BME280;63344;46.980;28.882;2023-06-19T11:34:35;100587.66;;;22.88;71.59
71857;BME280;63344;46.980;28.882;2023-06-19T11:38:23;100591.53;;;22.95;71.68
71857;BME280;63344;46.980;28.882;2023-06-19T11:41:57;100592.31;;;22.76;72.88
71857;BME280;63344;46.980;28.882;2023-06-19T11:45:47;100579.44;;;22.49;73.51
71857;BME280;63344;46.980;28.882;2023-06-19T11:48:47;100571.16;;;22.41;73.96
71857;BME280;63344;46.980;28.882;2023-06-19T11:51:44;100571.72;;;22.35;74.43
71857;BME280;63344;46.980;28.882;2023-06-19T11:54:47;100567.13;;;22.25;75.24
71857;BME280;63344;46.980;28.882;2023-06-19T11:58:16;100559.75;;;22.37;76.07
71857;BME280;63344;46.980;28.882;2023-06-19T12:01:39;100553.38;;;22.48;76.28
71857;BME280;63344;46.980;28.882;2023-06-19T12:04:37;100534.16;;;22.51;75.67
71857;BME280;63344;46.980;28.882;2023-06-19T12:07:33;100528.91;;;22.69;75.98
71857;BME280;63344;46.980;28.882;2023-06-19T12:10:55;100526.06;;;22.71;75.10
71857;BME280;63344;46.980;28.882;2023-06-19T12:13:55;100519.66;;;22.72;75.09
71857;BME280;63344;46.980;28.882;2023-06-19T12:16:57;100496.56;;;22.67;73.48
71857;BME280;63344;46.980;28.882;2023-06-19T12:20:08;100500.13;;;22.68;73.67
71857;BME280;63344;46.980;28.882;2023-06-19T12:22:56;100502.41;;;22.82;74.32
71857;BME280;63344;46.980;28.882;2023-06-19T12:25:55;100489.56;;;22.94;74.12
71857;BME280;63344;46.980;28.882;2023-06-19T12:29:03;100480.47;;;23.15;73.46
71857;BME280;63344;46.980;28.882;2023-06-19T12:32:08;100476.72;;;23.45;72.27
71857;BME280;63344;46.980;28.882;2023-06-19T12:35:00;100474.66;;;23.66;71.81
71857;BME280;63344;46.980;28.882;2023-06-19T12:38:29;100475.75;;;24.11;71.73
71857;BME280;63344;46.980;28.882;2023-06-19T12:41:40;100475.41;;;24.42;70.55
71857;BME280;63344;46.980;28.882;2023-06-19T12:44:35;100472.00;;;24.68;70.38
71857;BME280;63344;46.980;28.882;2023-06-19T12:47:36;100475.03;;;24.82;68.77
71857;BME280;63344;46.980;28.882;2023-06-19T12:50:28;100478.66;;;24.91;67.79
71857;BME280;63344;46.980;28.882;2023-06-19T12:54:37;100483.25;;;24.91;65.86
71857;BME280;63344;46.980;28.882;2023-06-19T12:58:17;100483.81;;;24.76;65.39
71857;BME280;63344;46.980;28.882;2023-06-19T13:02:02;100496.84;;;24.73;64.17
71857;BME280;63344;46.980;28.882;2023-06-19T13:04:57;100496.84;;;24.91;62.97
71857;BME280;63344;46.980;28.882;2023-06-19T13:07:27;100495.16;;;25.16;62.45
71857;BME280;63344;46.980;28.882;2023-06-19T13:11:06;100487.00;;;25.16;61.41
71857;BME280;63344;46.980;28.882;2023-06-19T13:14:24;100493.84;;;25.20;61.45
71857;BME280;63344;46.980;28.882;2023-06-19T13:17:19;100482.13;;;25.19;60.53
71857;BME280;63344;46.980;28.882;2023-06-19T13:20:50;100481.06;;;24.94;60.93
71857;BME280;63344;46.980;28.882;2023-06-19T13:23:51;100483.34;;;24.81;61.60
71857;BME280;63344;46.980;28.882;2023-06-19T13:27:14;100486.88;;;24.63;61.59
71857;BME280;63344;46.980;28.882;2023-06-19T13:30:33;100483.34;;;24.35;61.01
71857;BME280;63344;46.980;28.882;2023-06-19T13:34:12;100484.19;;;24.08;61.78
71857;BME280;63344;46.980;28.882;2023-06-19T13:37:50;100479.97;;;23.96;62.13
71857;BME280;63344;46.980;28.882;2023-06-19T13:41:10;100484.69;;;23.94;62.79
71857;BME280;63344;46.980;28.882;2023-06-19T13:45:07;100490.16;;;23.84;62.87
71857;BME280;63344;46.980;28.882;2023-06-19T13:49:01;100501.00;;;23.74;63.33
71857;BME280;63344;46.980;28.882;2023-06-19T13:52:30;100503.47;;;23.67;63.49
71857;BME280;63344;46.980;28.882;2023-06-19T13:55:46;100494.75;;;23.74;63.14
71857;BME280;63344;46.980;28.882;2023-06-19T13:59:04;100505.59;;;23.83;63.33
71857;BME280;63344;46.980;28.882;2023-06-19T14:02:10;100502.13;;;23.91;62.91
71857;BME280;63344;46.980;28.882;2023-06-19T14:05:21;100497.69;;;23.90;61.59
71857;BME280;63344;46.980;28.882;2023-06-19T14:08:12;100496.16;;;23.88;61.98
71857;BME280;63344;46.980;28.882;2023-06-19T14:11:27;100506.81;;;23.99;62.32
71857;BME280;63344;46.980;28.882;2023-06-19T14:14:10;100502.47;;;24.06;62.38
71857;BME280;63344;46.980;28.882;2023-06-19T14:17:20;100490.88;;;24.14;62.18
71857;BME280;63344;46.980;28.882;2023-06-19T14:20:48;100495.84;;;24.18;62.25
71857;BME280;63344;46.980;28.882;2023-06-19T14:23:33;100497.66;;;24.28;62.26
71857;BME280;63344;46.980;28.882;2023-06-19T14:26:34;100503.88;;;24.38;62.22
71857;BME280;63344;46.980;28.882;2023-06-19T14:29:46;100497.84;;;24.44;63.05
71857;BME280;63344;46.980;28.882;2023-06-19T14:33:06;100497.25;;;24.50;63.06
71857;BME280;63344;46.980;28.882;2023-06-19T14:36:19;100489.81;;;24.52;63.78
71857;BME280;63344;46.980;28.882;2023-06-19T14:39:43;100487.28;;;24.51;64.09
71857;BME280;63344;46.980;28.882;2023-06-19T14:43:01;100493.13;;;24.46;64.71
71857;BME280;63344;46.980;28.882;2023-06-19T14:46:01;100503.59;;;24.41;64.78
71857;BME280;63344;46.980;28.882;2023-06-19T14:49:50;100497.81;;;24.26;63.45
71857;BME280;63344;46.980;28.882;2023-06-19T14:56:55;100502.19;;;24.09;63.66
71857;BME280;63344;46.980;28.882;2023-06-19T15:00:28;100504.31;;;24.15;63.34
71857;BME280;63344;46.980;28.882;2023-06-19T15:03:24;100500.28;;;24.19;63.11
71857;BME280;63344;46.980;28.882;2023-06-19T15:06:33;100489.84;;;24.24;63.29
71857;BME280;63344;46.980;28.882;2023-06-19T15:10:21;100501.69;;;24.23;63.15
71857;BME280;63344;46.980;28.882;2023-06-19T15:14:05;100498.28;;;24.21;63.59
71857;BME280;63344;46.980;28.882;2023-06-19T15:17:10;100503.69;;;24.21;63.59
71857;BME280;63344;46.980;28.882;2023-06-19T15:20:06;100500.28;;;24.19;63.90
71857;BME280;63344;46.980;28.882;2023-06-19T15:23:14;100502.28;;;24.17;62.66
71857;BME280;63344;46.980;28.882;2023-06-19T15:26:04;100500.03;;;24.13;61.73
71857;BME280;63344;46.980;28.882;2023-06-19T15:29:11;100500.34;;;24.10;61.21
71857;BME280;63344;46.980;28.882;2023-06-19T15:32:11;100502.75;;;24.13;61.41
71857;BME280;63344;46.980;28.882;2023-06-19T15:35:02;100498.56;;;24.18;61.30
71857;BME280;63344;46.980;28.882;2023-06-19T15:38:27;100499.59;;;24.17;61.83
71857;BME280;63344;46.980;28.882;2023-06-19T15:41:51;100507.03;;;24.15;62.45
71857;BME280;63344;46.980;28.882;2023-06-19T15:44:36;100510.03;;;24.12;62.86
71857;BME280;63344;46.980;28.882;2023-06-19T15:47:32;100506.78;;;24.09;63.38
71857;BME280;63344;46.980;28.882;2023-06-19T15:50:21;100516.38;;;24.03;63.45
71857;BME280;63344;46.980;28.882;2023-06-19T15:53:19;100506.50;;;24.02;63.91
71857;BME280;63344;46.980;28.882;2023-06-19T15:56:02;100504.09;;;23.99;63.76
71857;BME280;63344;46.980;28.882;2023-06-19T15:58:48;100502.97;;;23.92;63.85
71857;BME280;63344;46.980;28.882;2023-06-19T16:01:47;100508.31;;;23.83;63.96
71857;BME280;63344;46.980;28.882;2023-06-19T16:04:19;100517.13;;;23.76;64.17
71857;BME280;63344;46.980;28.882;2023-06-19T16:07:31;100507.63;;;23.62;64.29
71857;BME280;63344;46.980;28.882;2023-06-19T16:10:28;100514.66;;;23.55;64.31
71857;BME280;63344;46.980;28.882;2023-06-19T16:13:42;100507.25;;;23.47;64.36
71857;BME280;63344;46.980;28.882;2023-06-19T16:16:46;100504.81;;;23.44;64.86
71857;BME280;63344;46.980;28.882;2023-06-19T16:19:38;100510.53;;;23.41;65.10
71857;BME280;63344;46.980;28.882;2023-06-19T16:22:59;100510.94;;;23.36;65.40
71857;BME280;63344;46.980;28.882;2023-06-19T16:26:00;100514.94;;;23.32;65.51
71857;BME280;63344;46.980;28.882;2023-06-19T16:28:43;100518.09;;;23.27;65.59
71857;BME280;63344;46.980;28.882;2023-06-19T16:31:53;100519.41;;;23.23;65.85